Time;durP1;ratioP1;P1;durP2;ratioP2;P2;SDS_P1;SDS_P2;PMS_P1;PMS_P2;Temp;Humidity;BMP_temperature;BMP_pressure;BME280_temperature;BME280_humidity;BME280_pressure;Samples;Min_cycle;Max_cycle;Signal;HPM_P1;HPM_P2
2020/12/30 00:00:52;;;;;;;13.02;8.95;;;1.90;90.80;;;;;;2056563;28;20038;-71
2020/12/30 00:01:52;;;;;;;15.35;9.63;;;1.90;90.90;;;;;;2056003;28;20023;-71
2020/12/30 00:02:53;;;;;;;13.20;9.43;;;1.90;90.80;;;;;;2056021;28;20031;-70
2020/12/30 00:03:55;;;;;;;12.48;9.18;;;2.00;90.80;;;;;;2056090;28;20106;-70
2020/12/30 00:04:57;;;;;;;13.73;9.02;;;2.00;90.80;;;;;;2056333;28;20066;-70
2020/12/30 00:05:58;;;;;;;13.27;9.13;;;2.00;90.70;;;;;;2057013;28;20058;-71
2020/12/30 00:06:58;;;;;;;12.45;8.82;;;2.00;90.70;;;;;;2063825;28;20030;-72
2020/12/30 00:07:59;;;;;;;12.65;8.88;;;2.00;90.60;;;;;;2055709;28;20037;-70
2020/12/30 00:09:00;;;;;;;11.90;8.50;;;2.10;90.60;;;;;;2047768;29;20042;-72
2020/12/30 00:10:01;;;;;;;11.48;8.30;;;2.10;90.50;;;;;;2056055;28;20067;-71
2020/12/30 00:11:01;;;;;;;11.50;8.30;;;2.20;90.50;;;;;;2056987;28;20031;-70
2020/12/30 00:12:02;;;;;;;11.88;8.38;;;2.10;90.40;;;;;;2056704;28;20030;-71
2020/12/30 00:13:04;;;;;;;12.32;8.05;;;2.20;90.50;;;;;;2063930;28;20386;-71
2020/12/30 00:14:04;;;;;;;11.57;7.97;;;2.20;90.50;;;;;;2063469;28;20089;-72
2020/12/30 00:15:07;;;;;;;12.70;8.10;;;2.20;90.40;;;;;;2056530;28;20014;-72
2020/12/30 00:16:08;;;;;;;12.02;7.90;;;2.20;90.40;;;;;;2055992;28;20027;-72
2020/12/30 00:17:09;;;;;;;11.18;8.07;;;2.30;90.30;;;;;;2063412;28;20023;-70
2020/12/30 00:18:09;;;;;;;11.00;7.57;;;2.30;90.20;;;;;;2063711;28;20057;-71
2020/12/30 00:19:10;;;;;;;9.60;7.35;;;2.30;90.20;;;;;;2056367;28;20033;-72
2020/12/30 00:20:13;;;;;;;11.55;7.18;;;2.40;90.20;;;;;;2056305;28;20118;-72
2020/12/30 00:21:14;;;;;;;9.40;7.00;;;2.40;90.00;;;;;;2056740;28;20027;-70
2020/12/30 00:22:15;;;;;;;8.52;6.70;;;2.40;89.70;;;;;;2063752;28;20123;-71
2020/12/30 00:23:16;;;;;;;8.35;6.60;;;2.40;89.70;;;;;;2063923;28;20030;-71
2020/12/30 00:24:17;;;;;;;9.07;6.38;;;2.40;89.50;;;;;;2056260;28;20038;-71
2020/12/30 00:25:17;;;;;;;7.30;6.18;;;2.50;89.30;;;;;;2056381;28;20038;-71
2020/12/30 00:26:19;;;;;;;8.43;6.38;;;2.50;89.10;;;;;;2055943;28;20090;-70
2020/12/30 00:27:20;;;;;;;7.18;6.00;;;2.50;88.90;;;;;;2056935;28;20510;-71
2020/12/30 00:28:22;;;;;;;7.72;6.05;;;2.60;88.90;;;;;;2057331;28;20045;-71
2020/12/30 00:29:22;;;;;;;7.03;5.75;;;2.60;88.60;;;;;;2057752;28;20023;-70
2020/12/30 00:30:23;;;;;;;7.78;6.13;;;2.60;88.50;;;;;;2057489;28;20058;-72
2020/12/30 00:31:24;;;;;;;8.15;6.22;;;2.60;88.20;;;;;;2056935;28;20113;-71
2020/12/30 00:32:24;;;;;;;7.80;5.70;;;2.60;88.20;;;;;;2057147;28;20109;-71
2020/12/30 00:33:25;;;;;;;8.15;5.75;;;2.70;88.20;;;;;;2056947;28;20534;-71
2020/12/30 00:34:26;;;;;;;8.18;5.82;;;2.70;88.10;;;;;;2057001;28;20494;-70
2020/12/30 00:35:27;;;;;;;7.90;5.55;;;2.70;87.70;;;;;;2057168;28;20026;-71
2020/12/30 00:36:27;;;;;;;8.20;5.80;;;2.70;87.40;;;;;;2056294;28;20029;-72
2020/12/30 00:37:28;;;;;;;7.40;5.78;;;2.70;87.20;;;;;;2056220;28;20035;-70
2020/12/30 00:38:29;;;;;;;6.50;5.45;;;2.70;87.10;;;;;;2057072;28;20050;-70
2020/12/30 00:39:29;;;;;;;7.13;5.65;;;2.80;87.10;;;;;;2057353;28;20091;-71
2020/12/30 00:40:30;;;;;;;7.28;5.32;;;2.80;87.10;;;;;;2057254;28;20109;-71
2020/12/30 00:41:31;;;;;;;6.85;5.13;;;2.80;87.70;;;;;;2057165;28;20681;-70
2020/12/30 00:42:33;;;;;;;7.88;5.30;;;2.80;86.90;;;;;;2057099;28;20035;-72
2020/12/30 00:43:34;;;;;;;7.07;5.40;;;2.80;86.70;;;;;;2057453;28;20033;-70
2020/12/30 00:44:35;;;;;;;6.75;5.20;;;2.80;86.70;;;;;;2057360;28;20391;-70
2020/12/30 00:45:35;;;;;;;6.63;5.10;;;2.90;86.70;;;;;;2057068;28;20085;-71
2020/12/30 00:46:36;;;;;;;6.93;5.07;;;2.90;86.60;;;;;;2056645;28;20038;-70
2020/12/30 00:47:37;;;;;;;7.63;5.10;;;2.90;86.50;;;;;;2064349;28;20035;-69
2020/12/30 00:48:38;;;;;;;9.15;5.63;;;2.90;86.50;;;;;;2056818;28;20121;-70
2020/12/30 00:49:39;;;;;;;7.40;5.40;;;2.90;86.50;;;;;;2048717;28;20484;-70
2020/12/30 00:50:39;;;;;;;7.38;5.28;;;3.00;86.60;;;;;;2056057;28;20038;-70
2020/12/30 00:51:40;;;;;;;8.27;5.10;;;3.00;86.60;;;;;;2056220;28;20086;-70
2020/12/30 00:52:41;;;;;;;8.65;5.55;;;3.00;86.60;;;;;;2056081;28;20035;-71
2020/12/30 00:53:45;;;;;;;7.95;5.20;;;3.00;86.70;;;;;;2063809;28;20057;-71
2020/12/30 00:54:47;;;;;;;7.32;5.28;;;3.00;86.70;;;;;;2056248;28;20441;-71
2020/12/30 00:55:59;;;;;;;8.73;5.78;;;3.00;86.70;;;;;;2049746;28;20053;-70
2020/12/30 00:57:01;;;;;;;8.02;5.70;;;3.00;86.70;;;;;;2056209;28;20113;-71
2020/12/30 00:58:05;;;;;;;8.65;5.90;;;3.00;86.60;;;;;;2055413;28;20027;-73
2020/12/30 00:59:05;;;;;;;8.82;6.13;;;3.10;86.50;;;;;;2056226;28;20053;-71
2020/12/30 01:00:06;;;;;;;8.43;5.82;;;3.10;86.70;;;;;;2064297;28;20026;-71
2020/12/30 01:01:27;;;;;;;8.40;5.80;;;3.10;86.60;;;;;;2061799;28;20074;-70
2020/12/30 01:03:00;;;;;;;8.45;5.80;;;3.10;86.50;;;;;;2052791;28;20375;-71
2020/12/30 01:04:01;;;;;;;7.13;5.57;;;3.10;86.40;;;;;;2057007;28;20046;-71
2020/12/30 01:05:02;;;;;;;7.88;5.57;;;3.20;86.50;;;;;;2056609;28;20062;-70
2020/12/30 01:06:03;;;;;;;6.78;5.35;;;3.20;86.50;;;;;;2055768;28;20569;-69
2020/12/30 01:07:04;;;;;;;8.75;6.22;;;3.20;86.60;;;;;;2056046;28;20033;-68
2020/12/30 01:08:05;;;;;;;8.30;5.90;;;3.20;86.40;;;;;;2056332;28;20474;-71
2020/12/30 01:09:06;;;;;;;8.57;5.88;;;3.20;86.50;;;;;;2056932;28;20030;-69
2020/12/30 01:10:07;;;;;;;8.43;6.07;;;3.20;86.50;;;;;;2056902;28;20023;-71
2020/12/30 01:11:07;;;;;;;8.38;5.68;;;3.30;86.60;;;;;;2056952;28;20453;-72
2020/12/30 01:12:08;;;;;;;7.35;5.47;;;3.20;86.50;;;;;;2064057;28;20038;-70
2020/12/30 01:13:09;;;;;;;8.25;5.97;;;3.30;86.60;;;;;;2055455;28;20470;-71
2020/12/30 01:14:10;;;;;;;9.70;6.10;;;3.30;86.60;;;;;;2055571;28;20071;-71
2020/12/30 01:15:10;;;;;;;8.73;6.25;;;3.30;86.50;;;;;;2056461;28;20024;-74
2020/12/30 01:16:11;;;;;;;7.90;5.60;;;3.30;86.50;;;;;;2056063;28;20035;-71
2020/12/30 01:17:12;;;;;;;9.82;6.53;;;3.30;86.40;;;;;;2055646;28;20051;-71
2020/12/30 01:18:13;;;;;;;9.77;6.78;;;3.30;86.40;;;;;;2056243;28;20471;-71
2020/12/30 01:19:14;;;;;;;9.32;6.78;;;3.30;86.40;;;;;;2055748;28;20039;-71
2020/12/30 01:20:15;;;;;;;9.63;6.35;;;3.30;86.40;;;;;;2056886;28;20557;-71
2020/12/30 01:21:16;;;;;;;9.73;6.10;;;3.30;86.40;;;;;;2058034;28;20161;-72
2020/12/30 01:22:17;;;;;;;9.00;6.13;;;3.30;86.50;;;;;;2057787;28;20086;-71
2020/12/30 01:23:17;;;;;;;8.30;5.75;;;3.30;86.60;;;;;;2057274;28;20459;-72
2020/12/30 01:24:18;;;;;;;7.65;6.05;;;3.30;86.60;;;;;;2057228;28;20070;-71
2020/12/30 01:25:19;;;;;;;7.50;5.70;;;3.30;86.60;;;;;;2057937;28;20121;-71
2020/12/30 01:26:20;;;;;;;8.18;5.43;;;3.30;87.40;;;;;;2064997;28;20038;-73
2020/12/30 01:27:20;;;;;;;8.60;5.95;;;3.30;86.80;;;;;;2065018;28;20042;-73
2020/12/30 01:28:21;;;;;;;7.43;5.63;;;3.30;86.70;;;;;;2057702;28;20047;-72
2020/12/30 01:29:22;;;;;;;9.10;5.60;;;3.30;86.80;;;;;;2065173;28;20031;-71
2020/12/30 01:30:23;;;;;;;8.25;5.47;;;3.30;86.70;;;;;;2056932;28;20054;-69
2020/12/30 01:31:30;;;;;;;8.50;5.78;;;3.30;86.80;;;;;;2057037;28;20057;-70
2020/12/30 01:32:31;;;;;;;9.45;6.10;;;3.30;86.80;;;;;;2057687;28;20110;-71
2020/12/30 01:33:32;;;;;;;9.10;5.80;;;3.30;86.80;;;;;;2057488;28;20034;-70
2020/12/30 01:34:33;;;;;;;7.55;5.55;;;3.30;86.90;;;;;;2057511;28;20027;-69
2020/12/30 01:35:34;;;;;;;8.85;5.95;;;3.30;87.00;;;;;;2057619;28;20043;-71
2020/12/30 01:36:36;;;;;;;10.20;6.95;;;3.30;87.00;;;;;;2057399;28;20062;-73
2020/12/30 01:37:37;;;;;;;9.52;6.35;;;3.30;87.10;;;;;;2056485;28;20050;-70
2020/12/30 01:38:37;;;;;;;9.93;6.78;;;3.30;87.20;;;;;;2056876;28;20070;-72
2020/12/30 01:39:38;;;;;;;9.13;6.07;;;3.20;87.30;;;;;;2057649;28;20033;-71
2020/12/30 01:40:39;;;;;;;10.98;6.35;;;3.30;87.40;;;;;;2057623;28;20038;-69
2020/12/30 01:41:40;;;;;;;9.15;6.40;;;3.30;87.40;;;;;;2056755;28;20039;-72
2020/12/30 01:42:48;;;;;;;9.50;6.30;;;3.30;87.40;;;;;;2056887;28;20396;-70
2020/12/30 01:44:03;;;;;;;10.93;6.50;;;3.30;87.50;;;;;;2057844;28;20079;-70
2020/12/30 01:45:04;;;;;;;9.88;6.20;;;3.30;87.50;;;;;;2058645;28;20030;-73
2020/12/30 01:46:05;;;;;;;9.43;6.22;;;3.30;87.60;;;;;;2057868;28;20109;-73
2020/12/30 01:47:07;;;;;;;9.82;6.78;;;3.30;87.60;;;;;;2064741;28;20022;-69
2020/12/30 01:48:15;;;;;;;10.02;6.75;;;3.30;87.60;;;;;;2064766;28;20029;-70
2020/12/30 01:49:20;;;;;;;9.90;6.28;;;3.30;87.60;;;;;;2056967;28;20081;-70
2020/12/30 01:50:21;;;;;;;9.50;6.50;;;3.30;87.70;;;;;;2056908;28;20066;-71
2020/12/30 01:51:22;;;;;;;9.32;6.18;;;3.30;87.80;;;;;;2057443;28;20023;-70
2020/12/30 01:52:23;;;;;;;9.60;6.15;;;3.30;87.80;;;;;;2057383;28;20031;-73
2020/12/30 01:53:24;;;;;;;8.25;5.85;;;3.30;87.80;;;;;;2056708;28;20139;-70
2020/12/30 01:54:27;;;;;;;8.57;5.65;;;3.30;87.80;;;;;;2056709;28;20039;-71
2020/12/30 01:55:31;;;;;;;8.48;5.65;;;3.30;87.90;;;;;;2057586;28;20030;-71
2020/12/30 01:56:33;;;;;;;9.00;5.93;;;3.30;87.90;;;;;;2057317;28;20461;-71
2020/12/30 01:57:36;;;;;;;9.55;5.97;;;3.30;87.90;;;;;;2056799;28;20530;-70
2020/12/30 01:58:37;;;;;;;9.32;6.07;;;3.30;87.90;;;;;;2056732;28;20034;-70
2020/12/30 01:59:38;;;;;;;8.75;5.68;;;3.30;87.90;;;;;;2056876;28;20027;-71
2020/12/30 02:00:41;;;;;;;8.07;5.72;;;3.30;88.00;;;;;;2048648;28;20032;-71
2020/12/30 02:01:46;;;;;;;8.35;6.07;;;3.30;88.00;;;;;;2049061;28;20027;-70
2020/12/30 02:02:55;;;;;;;8.52;5.78;;;3.30;87.90;;;;;;2056818;28;20864;-71
2020/12/30 02:03:57;;;;;;;9.50;5.82;;;3.30;88.00;;;;;;2056782;28;20038;-70
2020/12/30 02:05:00;;;;;;;7.95;5.63;;;3.30;88.00;;;;;;2057331;28;20027;-68
2020/12/30 02:06:01;;;;;;;8.32;5.50;;;3.30;88.00;;;;;;2057125;28;20026;-70
2020/12/30 02:07:01;;;;;;;8.13;5.57;;;3.30;88.00;;;;;;2057303;28;20559;-70
2020/12/30 02:08:04;;;;;;;8.35;5.72;;;3.30;88.10;;;;;;2057175;28;20073;-70
2020/12/30 02:09:05;;;;;;;9.20;5.82;;;3.30;88.20;;;;;;2057426;28;20120;-70
2020/12/30 02:10:06;;;;;;;7.95;5.78;;;3.30;88.20;;;;;;2057418;28;20436;-70
2020/12/30 02:11:07;;;;;;;7.72;5.70;;;3.30;88.10;;;;;;2057299;28;20030;-70
2020/12/30 02:12:08;;;;;;;8.23;5.75;;;3.30;88.90;;;;;;2057399;28;20027;-71
2020/12/30 02:13:10;;;;;;;9.05;6.03;;;3.30;88.10;;;;;;2057215;28;20093;-70
2020/12/30 02:14:11;;;;;;;11.05;6.30;;;3.30;88.10;;;;;;2057314;28;20062;-71
2020/12/30 02:15:23;;;;;;;10.93;7.13;;;3.30;88.10;;;;;;2064677;28;20028;-70
2020/12/30 02:16:23;;;;;;;12.82;7.30;;;3.30;88.10;;;;;;2063059;28;20057;-72
2020/12/30 02:17:24;;;;;;;10.18;6.90;;;3.30;88.20;;;;;;2056751;28;20060;-69
2020/12/30 02:18:25;;;;;;;11.45;6.60;;;3.30;88.20;;;;;;2064549;28;20037;-68
2020/12/30 02:19:26;;;;;;;11.15;6.80;;;3.30;88.10;;;;;;2064657;28;20072;-70
2020/12/30 02:20:33;;;;;;;9.65;6.03;;;3.30;88.20;;;;;;2057252;28;20027;-70
2020/12/30 02:21:34;;;;;;;8.88;5.50;;;3.30;88.40;;;;;;2057369;28;20067;-70
2020/12/30 02:22:34;;;;;;;7.82;5.13;;;3.30;88.50;;;;;;2057150;28;20052;-71
2020/12/30 02:23:36;;;;;;;8.60;5.10;;;3.30;88.50;;;;;;2057233;28;20034;-70
2020/12/30 02:24:37;;;;;;;6.97;4.90;;;3.30;88.50;;;;;;2057206;28;20062;-72
2020/12/30 02:25:38;;;;;;;6.30;4.70;;;3.30;88.60;;;;;;2057191;28;20085;-71
2020/12/30 02:26:38;;;;;;;7.07;4.82;;;3.30;88.50;;;;;;2056927;28;20110;-69
2020/12/30 02:27:39;;;;;;;6.38;4.75;;;3.30;88.60;;;;;;2056772;28;20034;-70
2020/12/30 02:28:40;;;;;;;6.53;4.30;;;3.30;88.50;;;;;;2057091;28;20034;-70
2020/12/30 02:29:41;;;;;;;6.53;4.80;;;3.30;88.50;;;;;;2057348;28;20034;-70
2020/12/30 02:32:57;;;;;;;5.80;4.13;;;3.30;88.50;;;;;;2057358;28;20023;-71
2020/12/30 02:33:58;;;;;;;6.55;4.40;;;3.30;88.50;;;;;;2057135;28;20030;-71
2020/12/30 02:34:58;;;;;;;5.68;4.10;;;3.30;88.50;;;;;;2057195;28;20038;-71
2020/12/30 02:36:02;;;;;;;6.78;4.18;;;3.30;88.50;;;;;;2055943;28;20061;-70
2020/12/30 02:37:02;;;;;;;6.90;4.30;;;3.30;88.50;;;;;;2064270;28;20154;-70
2020/12/30 02:38:03;;;;;;;6.75;3.97;;;3.30;88.40;;;;;;2064627;28;20101;-70
2020/12/30 02:39:04;;;;;;;5.75;4.07;;;3.30;88.50;;;;;;2048368;29;20424;-72
2020/12/30 02:40:05;;;;;;;4.60;3.65;;;3.30;88.50;;;;;;2048797;28;20065;-70
2020/12/30 02:41:06;;;;;;;6.35;4.00;;;3.30;88.50;;;;;;2056787;28;20105;-71
2020/12/30 02:42:07;;;;;;;4.90;3.40;;;3.30;88.40;;;;;;2057123;28;20074;-69
2020/12/30 02:43:14;;;;;;;5.72;3.47;;;3.30;88.20;;;;;;2057073;28;20455;-71
2020/12/30 02:44:15;;;;;;;6.05;3.60;;;3.30;88.10;;;;;;2057115;28;20034;-72
2020/12/30 02:45:16;;;;;;;5.30;3.33;;;3.30;88.00;;;;;;2057232;28;20141;-70
2020/12/30 02:46:17;;;;;;;5.05;3.10;;;3.40;88.00;;;;;;2063200;28;20494;-70
2020/12/30 02:47:18;;;;;;;5.03;3.00;;;3.40;87.90;;;;;;2064637;28;20034;-71
2020/12/30 02:48:18;;;;;;;4.70;3.00;;;3.40;87.80;;;;;;2064664;28;20034;-71
2020/12/30 02:49:19;;;;;;;3.45;2.88;;;3.40;87.80;;;;;;2064610;28;20073;-70
2020/12/30 02:50:20;;;;;;;4.38;3.00;;;3.40;87.70;;;;;;2057148;28;20045;-71
2020/12/30 02:51:21;;;;;;;4.85;2.92;;;3.40;87.50;;;;;;2056683;28;20243;-71
2020/12/30 02:52:22;;;;;;;4.38;2.50;;;3.40;87.50;;;;;;2057150;28;20766;-69
2020/12/30 02:53:22;;;;;;;4.45;2.63;;;3.40;87.50;;;;;;2057078;28;20031;-70
2020/12/30 02:54:23;;;;;;;5.10;2.90;;;3.40;87.30;;;;;;2057025;28;20101;-72
2020/12/30 02:55:23;;;;;;;5.38;2.88;;;3.40;87.20;;;;;;2064658;28;20066;-71
2020/12/30 02:56:24;;;;;;;3.70;2.58;;;3.40;87.20;;;;;;2056238;28;20027;-71
2020/12/30 02:57:28;;;;;;;3.53;2.55;;;3.40;87.10;;;;;;2056590;28;20101;-71
2020/12/30 02:58:29;;;;;;;3.70;2.50;;;3.40;87.30;;;;;;2057319;28;20031;-70
2020/12/30 02:59:30;;;;;;;4.22;2.67;;;3.40;87.20;;;;;;2064732;28;20026;-70
2020/12/30 03:00:36;;;;;;;4.40;2.70;;;3.40;87.30;;;;;;2064415;28;20030;-71
2020/12/30 03:01:37;;;;;;;3.38;2.67;;;3.30;87.40;;;;;;2056869;28;20118;-70
2020/12/30 03:02:41;;;;;;;4.32;2.58;;;3.30;87.40;;;;;;2056983;28;20035;-69
2020/12/30 03:03:42;;;;;;;3.83;2.60;;;3.30;87.60;;;;;;2064362;28;20038;-69
2020/12/30 03:04:43;;;;;;;3.75;2.45;;;3.30;87.70;;;;;;2064243;28;20077;-72
2020/12/30 03:05:44;;;;;;;3.80;2.67;;;3.20;87.70;;;;;;2056965;28;20430;-71
2020/12/30 03:06:44;;;;;;;4.47;2.70;;;3.30;87.80;;;;;;2056685;28;20082;-72
2020/12/30 03:07:47;;;;;;;4.53;2.60;;;3.20;88.40;;;;;;2056959;28;20058;-71
2020/12/30 03:08:47;;;;;;;3.45;2.45;;;3.20;88.50;;;;;;2056892;28;20086;-70
2020/12/30 03:09:48;;;;;;;3.75;2.40;;;3.20;87.80;;;;;;2064267;28;20030;-72
2020/12/30 03:10:49;;;;;;;4.55;2.70;;;3.20;87.90;;;;;;2064447;28;20022;-70
2020/12/30 03:11:50;;;;;;;3.50;2.58;;;3.20;87.80;;;;;;2056472;28;20019;-70
2020/12/30 03:12:51;;;;;;;3.08;2.33;;;3.20;87.80;;;;;;2056832;28;20023;-70
2020/12/30 03:13:53;;;;;;;3.45;2.30;;;3.10;87.80;;;;;;2056119;28;20038;-70
2020/12/30 03:14:53;;;;;;;3.30;2.25;;;3.10;87.90;;;;;;2056228;28;20073;-72
2020/12/30 03:15:54;;;;;;;2.65;2.03;;;3.10;88.00;;;;;;2056956;28;20023;-70
2020/12/30 03:16:57;;;;;;;4.15;2.60;;;3.10;88.00;;;;;;2056654;28;20049;-71
2020/12/30 03:17:58;;;;;;;4.57;2.53;;;3.10;88.30;;;;;;2056499;28;20051;-70
2020/12/30 03:18:59;;;;;;;3.35;2.40;;;3.10;88.60;;;;;;2056929;28;20035;-71
2020/12/30 03:20:00;;;;;;;4.13;2.75;;;3.10;88.90;;;;;;2056008;28;20027;-69
2020/12/30 03:21:01;;;;;;;5.28;2.60;;;3.00;89.30;;;;;;2047992;28;20027;-71
2020/12/30 03:22:02;;;;;;;4.30;2.70;;;3.10;89.60;;;;;;2055814;28;20585;-71
2020/12/30 03:23:02;;;;;;;3.67;2.60;;;3.10;90.00;;;;;;2056712;28;20451;-70
2020/12/30 03:24:04;;;;;;;4.28;2.50;;;3.00;89.90;;;;;;2056735;28;20475;-71
2020/12/30 03:25:05;;;;;;;3.50;2.38;;;3.10;90.00;;;;;;2056870;28;20054;-72
2020/12/30 03:26:05;;;;;;;3.80;2.40;;;3.00;90.10;;;;;;2056652;28;20070;-71
2020/12/30 03:27:06;;;;;;;4.40;2.60;;;3.00;90.10;;;;;;2056656;28;20019;-70
2020/12/30 03:28:07;;;;;;;3.50;2.33;;;3.00;90.10;;;;;;2056814;28;20085;-69
2020/12/30 03:29:08;;;;;;;3.63;2.58;;;3.00;90.20;;;;;;2056808;28;20059;-70
2020/12/30 03:30:08;;;;;;;5.10;2.53;;;3.00;90.20;;;;;;2064071;28;20058;-71
2020/12/30 03:31:09;;;;;;;3.97;2.65;;;3.00;90.30;;;;;;2063693;28;20049;-70
2020/12/30 03:32:10;;;;;;;4.22;2.67;;;3.00;90.30;;;;;;2056744;28;20046;-69
2020/12/30 03:33:10;;;;;;;4.35;2.58;;;2.90;90.40;;;;;;2056868;28;20038;-69
2020/12/30 03:34:11;;;;;;;4.97;2.88;;;2.90;90.40;;;;;;2056931;28;20065;-69
2020/12/30 03:35:12;;;;;;;3.75;2.40;;;2.80;90.50;;;;;;2056892;28;20023;-70
2020/12/30 03:36:15;;;;;;;3.30;2.28;;;2.80;90.50;;;;;;2056444;28;20023;-71
2020/12/30 03:37:16;;;;;;;5.20;3.10;;;2.80;90.50;;;;;;2056873;28;20031;-70
2020/12/30 03:38:18;;;;;;;6.40;3.50;;;2.70;90.70;;;;;;2063985;28;20485;-69
2020/12/30 03:39:18;;;;;;;7.13;3.53;;;2.70;90.90;;;;;;2064186;28;20088;-71
2020/12/30 03:40:19;;;;;;;6.72;3.60;;;2.70;91.00;;;;;;2056642;28;20030;-70
2020/12/30 03:41:20;;;;;;;4.93;3.08;;;2.60;91.10;;;;;;2063702;28;20096;-69
2020/12/30 03:42:20;;;;;;;8.13;3.60;;;2.60;91.30;;;;;;2064151;28;20033;-70
2020/12/30 03:43:21;;;;;;;7.32;3.95;;;2.60;91.40;;;;;;2057022;28;20482;-71
2020/12/30 03:44:24;;;;;;;6.13;3.17;;;2.60;91.70;;;;;;2056724;28;20042;-71
2020/12/30 03:45:25;;;;;;;6.93;3.40;;;2.50;91.70;;;;;;2056716;28;20069;-71
2020/12/30 03:46:26;;;;;;;5.05;3.15;;;2.50;91.80;;;;;;2056795;28;20109;-69
2020/12/30 03:47:30;;;;;;;5.82;3.13;;;2.50;91.80;;;;;;2056820;28;20038;-70
2020/12/30 03:48:31;;;;;;;4.68;2.90;;;2.50;91.70;;;;;;2064033;28;20597;-70
2020/12/30 03:49:32;;;;;;;6.40;3.08;;;2.50;91.70;;;;;;2064200;28;20041;-70
2020/12/30 03:50:33;;;;;;;4.55;2.80;;;2.50;91.70;;;;;;2056708;28;20031;-70
2020/12/30 03:51:34;;;;;;;5.72;2.67;;;2.50;91.60;;;;;;2056074;28;20802;-70
2020/12/30 03:52:37;;;;;;;4.10;2.67;;;2.50;91.50;;;;;;2056069;28;20541;-70
2020/12/30 03:53:37;;;;;;;4.28;2.33;;;2.50;91.50;;;;;;2056070;28;20034;-71
2020/12/30 03:54:38;;;;;;;4.88;2.50;;;2.50;91.40;;;;;;2047947;29;20514;-69
2020/12/30 03:55:39;;;;;;;6.35;2.25;;;2.50;91.30;;;;;;2048251;28;20042;-70
2020/12/30 03:56:40;;;;;;;4.70;2.40;;;2.50;91.20;;;;;;2063751;28;20069;-70
2020/12/30 03:57:41;;;;;;;5.30;2.38;;;2.50;91.10;;;;;;2064185;28;20109;-70
2020/12/30 03:58:41;;;;;;;3.58;2.33;;;2.50;91.00;;;;;;2058625;28;20446;-71
2020/12/30 03:59:42;;;;;;;4.07;2.42;;;2.50;91.00;;;;;;2067126;28;20034;-71
2020/12/30 04:00:43;;;;;;;5.22;2.40;;;2.50;90.80;;;;;;2066476;28;20030;-70
2020/12/30 04:01:44;;;;;;;5.00;2.60;;;2.50;90.80;;;;;;2057214;28;20035;-70
2020/12/30 04:02:45;;;;;;;4.38;2.40;;;2.50;90.60;;;;;;2056488;28;20422;-69
2020/12/30 04:03:46;;;;;;;3.33;2.40;;;2.50;90.60;;;;;;2056204;28;20031;-68
2020/12/30 04:04:46;;;;;;;4.20;2.22;;;2.50;90.60;;;;;;2056296;28;20129;-71
2020/12/30 04:05:50;;;;;;;3.42;2.30;;;2.40;90.50;;;;;;2056651;28;20045;-70
2020/12/30 04:06:51;;;;;;;2.80;2.10;;;2.40;90.50;;;;;;2056284;28;20090;-70
2020/12/30 04:07:53;;;;;;;2.25;1.98;;;2.40;90.60;;;;;;2056623;28;20098;-71
2020/12/30 04:08:53;;;;;;;2.47;2.00;;;2.40;90.70;;;;;;2063895;28;20050;-72
2020/12/30 04:09:55;;;;;;;2.42;2.05;;;2.30;90.60;;;;;;2063935;28;20026;-71
2020/12/30 04:10:55;;;;;;;3.35;2.40;;;2.30;90.60;;;;;;2056492;28;20011;-72
2020/12/30 04:11:56;;;;;;;2.63;2.30;;;2.20;90.70;;;;;;2055465;28;20521;-70
2020/12/30 04:12:57;;;;;;;3.40;2.13;;;2.20;90.80;;;;;;2047827;28;20522;-70
2020/12/30 04:13:58;;;;;;;2.55;1.98;;;2.10;90.80;;;;;;2055595;28;20042;-71
2020/12/30 04:14:58;;;;;;;2.72;2.10;;;2.20;90.80;;;;;;2056479;28;20023;-71
2020/12/30 04:15:59;;;;;;;3.58;2.20;;;2.10;90.80;;;;;;2056837;28;20558;-69
2020/12/30 04:17:00;;;;;;;2.63;2.05;;;2.10;90.90;;;;;;2056531;28;20033;-72
2020/12/30 04:18:00;;;;;;;3.08;2.00;;;2.10;90.90;;;;;;2056777;28;20030;-70
2020/12/30 04:19:01;;;;;;;2.90;2.05;;;2.00;90.90;;;;;;2056513;28;20785;-69
2020/12/30 04:20:03;;;;;;;3.05;2.15;;;2.00;90.90;;;;;;2056553;28;20031;-73
2020/12/30 04:21:03;;;;;;;2.70;2.08;;;2.00;91.00;;;;;;2056106;28;20111;-70
2020/12/30 04:22:04;;;;;;;2.90;2.17;;;1.90;91.00;;;;;;2056773;28;20390;-70
2020/12/30 04:23:05;;;;;;;2.17;1.90;;;1.90;91.10;;;;;;2055897;28;20023;-69
2020/12/30 04:24:06;;;;;;;3.17;2.17;;;1.90;91.20;;;;;;2047994;28;20027;-71
2020/12/30 04:25:06;;;;;;;3.10;2.10;;;1.90;91.20;;;;;;2055849;28;20072;-69
2020/12/30 04:26:07;;;;;;;2.33;1.90;;;1.90;91.30;;;;;;2056268;28;20045;-70
2020/12/30 04:27:08;;;;;;;2.35;2.08;;;1.80;91.30;;;;;;2056321;28;20031;-69
2020/12/30 04:28:08;;;;;;;2.72;2.00;;;1.80;91.30;;;;;;2056734;28;20086;-70
2020/12/30 04:29:09;;;;;;;2.72;2.20;;;1.80;91.40;;;;;;2056736;28;20113;-70
2020/12/30 04:30:10;;;;;;;2.92;2.10;;;1.80;91.50;;;;;;2056391;28;20027;-69
2020/12/30 04:31:12;;;;;;;2.72;1.95;;;1.80;91.50;;;;;;2056098;28;20058;-71
2020/12/30 04:32:13;;;;;;;3.08;2.10;;;1.70;91.50;;;;;;2055924;28;20041;-71
2020/12/30 04:33:14;;;;;;;2.25;1.90;;;1.70;91.60;;;;;;2055947;28;20133;-69
2020/12/30 04:34:15;;;;;;;3.55;2.10;;;1.70;91.70;;;;;;2056451;28;20027;-70
2020/12/30 04:35:16;;;;;;;2.30;1.92;;;1.70;91.70;;;;;;2056738;28;20126;-70
2020/12/30 04:36:16;;;;;;;3.50;2.30;;;1.70;91.70;;;;;;2056243;28;20050;-70
2020/12/30 04:37:17;;;;;;;3.40;2.30;;;1.70;91.70;;;;;;2056346;28;20685;-70
2020/12/30 04:38:18;;;;;;;3.40;2.38;;;1.70;91.80;;;;;;2056503;28;20030;-69
2020/12/30 04:39:20;;;;;;;3.92;2.75;;;1.60;91.70;;;;;;2056445;28;20102;-71
2020/12/30 04:40:21;;;;;;;2.65;2.25;;;1.70;91.90;;;;;;2056447;28;20035;-71
2020/12/30 04:41:34;;;;;;;3.20;2.20;;;1.70;91.80;;;;;;2055118;28;20121;-71
2020/12/30 04:42:37;;;;;;;3.30;2.42;;;1.70;91.90;;;;;;2055814;28;20038;-72
2020/12/30 04:43:44;;;;;;;4.03;2.30;;;1.70;91.80;;;;;;2056197;28;20030;-69
2020/12/30 04:44:51;;;;;;;2.92;2.25;;;1.60;91.80;;;;;;2056341;28;20433;-72
2020/12/30 04:45:53;;;;;;;2.85;2.35;;;1.60;91.90;;;;;;2056306;28;20424;-70
2020/12/30 04:46:56;;;;;;;4.18;2.80;;;1.60;92.00;;;;;;2056048;28;20026;-69
2020/12/30 04:48:00;;;;;;;3.42;2.20;;;1.60;92.00;;;;;;2055702;28;20051;-71
2020/12/30 04:49:03;;;;;;;4.00;2.53;;;1.60;92.00;;;;;;2055801;28;20465;-72
2020/12/30 04:50:07;;;;;;;4.22;2.50;;;1.60;92.10;;;;;;2056185;28;20022;-71
2020/12/30 04:51:10;;;;;;;4.63;3.10;;;1.60;92.00;;;;;;2055740;28;20037;-71
2020/12/30 04:52:14;;;;;;;3.42;2.80;;;1.60;92.10;;;;;;2056249;28;20031;-72
2020/12/30 04:53:15;;;;;;;3.03;2.53;;;1.60;92.10;;;;;;2056268;28;20182;-72
2020/12/30 04:54:16;;;;;;;5.03;2.95;;;1.60;92.00;;;;;;2055379;28;20129;-69
2020/12/30 04:55:23;;;;;;;5.18;2.70;;;1.60;92.10;;;;;;2055652;28;20030;-70
2020/12/30 04:56:52;;;;;;;5.38;3.20;;;1.60;92.30;;;;;;2055963;28;20022;-70
2020/12/30 04:58:06;;;;;;;7.35;3.10;;;1.60;92.40;;;;;;2056211;28;20048;-69
2020/12/30 04:59:09;;;;;;;5.63;3.00;;;1.70;92.40;;;;;;2054911;28;20482;-69
2020/12/30 05:00:10;;;;;;;7.07;3.42;;;1.80;92.30;;;;;;2055763;28;20035;-70
2020/12/30 05:01:17;;;;;;;6.03;3.20;;;1.80;92.10;;;;;;2054949;28;20041;-68
2020/12/30 05:02:29;;;;;;;6.50;3.45;;;1.90;91.90;;;;;;2055716;28;20027;-69
2020/12/30 05:03:34;;;;;;;7.30;3.40;;;1.90;91.80;;;;;;2055948;28;20026;-70
2020/12/30 05:04:36;;;;;;;6.38;3.30;;;1.90;91.70;;;;;;2055537;28;20026;-69
2020/12/30 05:05:37;;;;;;;5.00;3.20;;;1.90;91.50;;;;;;2047765;29;20127;-69
2020/12/30 05:06:40;;;;;;;6.00;3.25;;;1.90;91.50;;;;;;2048013;28;20027;-69
2020/12/30 05:07:45;;;;;;;6.10;3.55;;;1.90;91.50;;;;;;2047619;28;20081;-69
2020/12/30 05:08:45;;;;;;;6.45;3.10;;;1.90;91.50;;;;;;2047821;29;20037;-70
2020/12/30 05:09:46;;;;;;;4.22;2.97;;;1.90;91.60;;;;;;2048348;28;20046;-69
2020/12/30 05:10:49;;;;;;;5.65;2.95;;;1.90;91.50;;;;;;2048417;28;20062;-69
2020/12/30 05:11:50;;;;;;;5.22;3.00;;;1.90;91.50;;;;;;2047934;28;20035;-69
2020/12/30 05:12:54;;;;;;;3.60;2.60;;;1.90;91.40;;;;;;2048215;28;20039;-68
2020/12/30 05:13:54;;;;;;;5.75;3.17;;;1.80;91.30;;;;;;2047971;28;20035;-68
2020/12/30 05:14:55;;;;;;;5.05;3.20;;;1.80;91.60;;;;;;2048162;28;20030;-71
2020/12/30 05:15:59;;;;;;;5.57;3.17;;;1.80;91.70;;;;;;2048295;28;20452;-70
2020/12/30 05:17:00;;;;;;;4.80;3.33;;;1.80;91.80;;;;;;2048336;28;20071;-69
2020/12/30 05:18:07;;;;;;;5.20;3.35;;;1.80;91.80;;;;;;2047818;29;20019;-70
2020/12/30 05:19:08;;;;;;;5.60;3.30;;;1.80;91.80;;;;;;2039763;29;20054;-70
2020/12/30 05:20:09;;;;;;;5.35;3.20;;;1.80;91.80;;;;;;2040000;29;20023;-70
2020/12/30 05:21:10;;;;;;;4.85;3.05;;;1.80;91.80;;;;;;2047704;28;20118;-70
2020/12/30 05:22:21;;;;;;;5.05;3.03;;;1.80;91.80;;;;;;2048234;28;20039;-70
2020/12/30 05:23:21;;;;;;;3.55;2.90;;;1.80;91.70;;;;;;2047694;28;20629;-70
2020/12/30 05:24:23;;;;;;;4.22;2.85;;;1.70;91.60;;;;;;2047495;29;20032;-69
2020/12/30 05:25:27;;;;;;;3.15;2.70;;;1.70;91.60;;;;;;2048354;28;20039;-69
2020/12/30 05:26:28;;;;;;;5.05;3.10;;;1.70;91.60;;;;;;2047857;28;20471;-70
2020/12/30 05:27:29;;;;;;;4.30;3.10;;;1.70;91.70;;;;;;2048058;29;20035;-71
2020/12/30 05:28:32;;;;;;;4.38;2.90;;;1.60;91.70;;;;;;2048260;29;20534;-69